sensor_id;sensor_type;location;lat;lon;timestamp;P1;durP1;ratioP1;P2;durP2;ratioP2
40849;SDS011;26571;41.610;25.380;2023-04-24T00:02:06;4.47;;;4.15;;
40849;SDS011;26571;41.610;25.380;2023-04-24T00:04:31;3.83;;;3.63;;
40849;SDS011;26571;41.610;25.380;2023-04-24T00:06:58;6.20;;;4.57;;
40849;SDS011;26571;41.610;25.380;2023-04-24T00:09:25;4.32;;;3.92;;
40849;SDS011;26571;41.610;25.380;2023-04-24T00:11:51;5.57;;;4.22;;
40849;SDS011;26571;41.610;25.380;2023-04-24T00:14:17;5.20;;;4.60;;
40849;SDS011;26571;41.610;25.380;2023-04-24T00:16:42;4.75;;;4.35;;
40849;SDS011;26571;41.610;25.380;2023-04-24T00:19:08;4.82;;;3.70;;
40849;SDS011;26571;41.610;25.380;2023-04-24T00:21:33;6.40;;;4.35;;
40849;SDS011;26571;41.610;25.380;2023-04-24T00:24:00;4.65;;;4.30;;
40849;SDS011;26571;41.610;25.380;2023-04-24T00:26:25;8.85;;;3.90;;
40849;SDS011;26571;41.610;25.380;2023-04-24T00:28:51;4.90;;;4.50;;
40849;SDS011;26571;41.610;25.380;2023-04-24T00:31:16;4.28;;;3.95;;
40849;SDS011;26571;41.610;25.380;2023-04-24T00:33:41;5.43;;;4.10;;
40849;SDS011;26571;41.610;25.380;2023-04-24T00:36:07;4.65;;;4.32;;
40849;SDS011;26571;41.610;25.380;2023-04-24T00:38:32;5.43;;;4.90;;
40849;SDS011;26571;41.610;25.380;2023-04-24T00:40:58;5.60;;;3.70;;
40849;SDS011;26571;41.610;25.380;2023-04-24T00:43:23;5.40;;;4.60;;
40849;SDS011;26571;41.610;25.380;2023-04-24T00:45:49;9.02;;;4.68;;
40849;SDS011;26571;41.610;25.380;2023-04-24T00:48:14;4.80;;;4.40;;
40849;SDS011;26571;41.610;25.380;2023-04-24T00:50:40;5.18;;;4.47;;
40849;SDS011;26571;41.610;25.380;2023-04-24T00:53:07;4.53;;;4.07;;
40849;SDS011;26571;41.610;25.380;2023-04-24T00:55:32;6.85;;;4.95;;
40849;SDS011;26571;41.610;25.380;2023-04-24T00:57:58;7.13;;;4.80;;
40849;SDS011;26571;41.610;25.380;2023-04-24T01:00:23;6.53;;;4.10;;
40849;SDS011;26571;41.610;25.380;2023-04-24T01:02:49;4.93;;;3.92;;
40849;SDS011;26571;41.610;25.380;2023-04-24T01:05:16;4.93;;;3.97;;
40849;SDS011;26571;41.610;25.380;2023-04-24T01:07:43;4.65;;;4.28;;
40849;SDS011;26571;41.610;25.380;2023-04-24T01:10:11;7.85;;;4.57;;
40849;SDS011;26571;41.610;25.380;2023-04-24T01:15:03;5.82;;;4.60;;
40849;SDS011;26571;41.610;25.380;2023-04-24T01:17:30;4.32;;;3.88;;
40849;SDS011;26571;41.610;25.380;2023-04-24T01:19:56;6.07;;;5.10;;
40849;SDS011;26571;41.610;25.380;2023-04-24T01:22:22;6.38;;;4.85;;
40849;SDS011;26571;41.610;25.380;2023-04-24T01:24:47;5.38;;;4.25;;
40849;SDS011;26571;41.610;25.380;2023-04-24T01:27:13;4.40;;;3.95;;
40849;SDS011;26571;41.610;25.380;2023-04-24T01:29:39;4.07;;;3.88;;
40849;SDS011;26571;41.610;25.380;2023-04-24T01:32:05;6.43;;;4.70;;
40849;SDS011;26571;41.610;25.380;2023-04-24T01:34:31;5.57;;;4.20;;
40849;SDS011;26571;41.610;25.380;2023-04-24T01:36:56;9.68;;;5.15;;
40849;SDS011;26571;41.610;25.380;2023-04-24T01:39:22;4.53;;;4.13;;
40849;SDS011;26571;41.610;25.380;2023-04-24T01:41:50;4.97;;;4.57;;
40849;SDS011;26571;41.610;25.380;2023-04-24T01:44:16;5.15;;;4.85;;
40849;SDS011;26571;41.610;25.380;2023-04-24T01:46:43;6.70;;;4.35;;
40849;SDS011;26571;41.610;25.380;2023-04-24T01:49:08;8.85;;;4.10;;
40849;SDS011;26571;41.610;25.380;2023-04-24T01:51:34;8.45;;;4.30;;
40849;SDS011;26571;41.610;25.380;2023-04-24T01:53:59;6.57;;;5.50;;
40849;SDS011;26571;41.610;25.380;2023-04-24T01:56:25;5.60;;;4.93;;
40849;SDS011;26571;41.610;25.380;2023-04-24T01:58:51;8.98;;;5.22;;
40849;SDS011;26571;41.610;25.380;2023-04-24T02:01:19;6.82;;;4.97;;
40849;SDS011;26571;41.610;25.380;2023-04-24T02:03:45;7.23;;;5.07;;
40849;SDS011;26571;41.610;25.380;2023-04-24T02:06:10;6.78;;;5.10;;
40849;SDS011;26571;41.610;25.380;2023-04-24T02:08:36;5.90;;;4.30;;
40849;SDS011;26571;41.610;25.380;2023-04-24T02:11:01;8.55;;;6.70;;
40849;SDS011;26571;41.610;25.380;2023-04-24T02:13:27;8.35;;;5.15;;
40849;SDS011;26571;41.610;25.380;2023-04-24T02:15:53;7.10;;;4.63;;
40849;SDS011;26571;41.610;25.380;2023-04-24T02:18:18;10.02;;;6.25;;
40849;SDS011;26571;41.610;25.380;2023-04-24T02:20:44;9.40;;;8.57;;
40849;SDS011;26571;41.610;25.380;2023-04-24T02:23:10;22.27;;;13.52;;
40849;SDS011;26571;41.610;25.380;2023-04-24T02:25:36;12.93;;;11.57;;
40849;SDS011;26571;41.610;25.380;2023-04-24T02:28:01;8.77;;;7.80;;
40849;SDS011;26571;41.610;25.380;2023-04-24T02:30:27;7.60;;;7.00;;
40849;SDS011;26571;41.610;25.380;2023-04-24T02:32:53;7.75;;;7.05;;
40849;SDS011;26571;41.610;25.380;2023-04-24T02:35:18;9.35;;;8.40;;
40849;SDS011;26571;41.610;25.380;2023-04-24T02:37:44;8.23;;;7.55;;
40849;SDS011;26571;41.610;25.380;2023-04-24T02:40:09;11.25;;;8.73;;
40849;SDS011;26571;41.610;25.380;2023-04-24T02:42:35;9.65;;;8.85;;
40849;SDS011;26571;41.610;25.380;2023-04-24T02:45:00;9.80;;;7.28;;
40849;SDS011;26571;41.610;25.380;2023-04-24T02:47:26;9.05;;;8.20;;
40849;SDS011;26571;41.610;25.380;2023-04-24T02:49:51;9.55;;;7.80;;
40849;SDS011;26571;41.610;25.380;2023-04-24T02:52:17;7.28;;;6.72;;
40849;SDS011;26571;41.610;25.380;2023-04-24T02:54:42;7.45;;;6.68;;
40849;SDS011;26571;41.610;25.380;2023-04-24T02:57:08;7.55;;;6.95;;
40849;SDS011;26571;41.610;25.380;2023-04-24T02:59:33;7.50;;;6.90;;
40849;SDS011;26571;41.610;25.380;2023-04-24T03:01:59;8.20;;;7.43;;
40849;SDS011;26571;41.610;25.380;2023-04-24T03:04:25;8.65;;;5.88;;
40849;SDS011;26571;41.610;25.380;2023-04-24T03:06:51;7.43;;;6.60;;
40849;SDS011;26571;41.610;25.380;2023-04-24T03:09:19;5.85;;;5.20;;
40849;SDS011;26571;41.610;25.380;2023-04-24T03:11:48;7.18;;;6.15;;
40849;SDS011;26571;41.610;25.380;2023-04-24T03:14:14;8.45;;;6.85;;
40849;SDS011;26571;41.610;25.380;2023-04-24T03:16:40;7.15;;;6.20;;
40849;SDS011;26571;41.610;25.380;2023-04-24T03:19:05;9.80;;;7.88;;
40849;SDS011;26571;41.610;25.380;2023-04-24T03:21:31;10.98;;;7.75;;
40849;SDS011;26571;41.610;25.380;2023-04-24T03:23:56;8.75;;;7.95;;
40849;SDS011;26571;41.610;25.380;2023-04-24T03:26:21;8.50;;;6.28;;
40849;SDS011;26571;41.610;25.380;2023-04-24T03:28:47;7.78;;;6.95;;
40849;SDS011;26571;41.610;25.380;2023-04-24T03:31:12;7.82;;;7.13;;
40849;SDS011;26571;41.610;25.380;2023-04-24T03:33:38;7.53;;;6.65;;
40849;SDS011;26571;41.610;25.380;2023-04-24T03:36:03;6.25;;;5.70;;
40849;SDS011;26571;41.610;25.380;2023-04-24T03:38:30;7.30;;;6.47;;
40849;SDS011;26571;41.610;25.380;2023-04-24T03:40:55;6.05;;;5.57;;
40849;SDS011;26571;41.610;25.380;2023-04-24T03:43:20;7.13;;;6.63;;
40849;SDS011;26571;41.610;25.380;2023-04-24T03:45:46;9.80;;;7.65;;
40849;SDS011;26571;41.610;25.380;2023-04-24T03:48:11;7.43;;;6.75;;
40849;SDS011;26571;41.610;25.380;2023-04-24T03:50:37;9.73;;;7.00;;
40849;SDS011;26571;41.610;25.380;2023-04-24T03:53:02;7.03;;;6.50;;
40849;SDS011;26571;41.610;25.380;2023-04-24T03:55:28;8.38;;;5.72;;
40849;SDS011;26571;41.610;25.380;2023-04-24T03:57:54;5.60;;;5.28;;
40849;SDS011;26571;41.610;25.380;2023-04-24T04:00:19;4.97;;;4.60;;
40849;SDS011;26571;41.610;25.380;2023-04-24T04:02:46;4.55;;;4.15;;
40849;SDS011;26571;41.610;25.380;2023-04-24T04:05:11;4.43;;;4.03;;
40849;SDS011;26571;41.610;25.380;2023-04-24T04:07:37;3.88;;;3.58;;
40849;SDS011;26571;41.610;25.380;2023-04-24T04:10:02;3.58;;;2.70;;
40849;SDS011;26571;41.610;25.380;2023-04-24T04:12:28;3.17;;;2.97;;
40849;SDS011;26571;41.610;25.380;2023-04-24T04:14:53;3.08;;;2.88;;
40849;SDS011;26571;41.610;25.380;2023-04-24T04:17:19;3.20;;;2.60;;
40849;SDS011;26571;41.610;25.380;2023-04-24T04:19:44;5.15;;;2.88;;
40849;SDS011;26571;41.610;25.380;2023-04-24T04:22:09;3.08;;;2.28;;
40849;SDS011;26571;41.610;25.380;2023-04-24T04:24:35;2.28;;;2.17;;
40849;SDS011;26571;41.610;25.380;2023-04-24T04:27:03;2.58;;;2.17;;
40849;SDS011;26571;41.610;25.380;2023-04-24T04:29:30;3.03;;;2.72;;
40849;SDS011;26571;41.610;25.380;2023-04-24T04:31:56;5.10;;;3.80;;
40849;SDS011;26571;41.610;25.380;2023-04-24T04:34:22;4.10;;;2.78;;
40849;SDS011;26571;41.610;25.380;2023-04-24T04:36:50;4.00;;;3.40;;
40849;SDS011;26571;41.610;25.380;2023-04-24T04:39:15;3.07;;;2.50;;
40849;SDS011;26571;41.610;25.380;2023-04-24T04:41:43;3.83;;;3.47;;
40849;SDS011;26571;41.610;25.380;2023-04-24T04:44:09;3.03;;;2.83;;
40849;SDS011;26571;41.610;25.380;2023-04-24T04:46:34;3.97;;;2.03;;
40849;SDS011;26571;41.610;25.380;2023-04-24T04:49:02;3.17;;;1.88;;
40849;SDS011;26571;41.610;25.380;2023-04-24T04:51:28;2.73;;;2.00;;
40849;SDS011;26571;41.610;25.380;2023-04-24T04:53:53;2.63;;;2.43;;
40849;SDS011;26571;41.610;25.380;2023-04-24T04:56:19;1.33;;;1.23;;
40849;SDS011;26571;41.610;25.380;2023-04-24T04:58:44;1.63;;;1.33;;
40849;SDS011;26571;41.610;25.380;2023-04-24T05:01:10;1.80;;;1.47;;
40849;SDS011;26571;41.610;25.380;2023-04-24T05:03:35;2.87;;;1.27;;
40849;SDS011;26571;41.610;25.380;2023-04-24T05:06:01;4.30;;;1.92;;
40849;SDS011;26571;41.610;25.380;2023-04-24T05:08:27;6.10;;;1.88;;
40849;SDS011;26571;41.610;25.380;2023-04-24T05:10:53;1.50;;;1.40;;
40849;SDS011;26571;41.610;25.380;2023-04-24T05:13:19;1.70;;;1.08;;
40849;SDS011;26571;41.610;25.380;2023-04-24T05:15:45;3.70;;;2.00;;
40849;SDS011;26571;41.610;25.380;2023-04-24T05:18:10;1.03;;;0.97;;
40849;SDS011;26571;41.610;25.380;2023-04-24T05:20:36;1.23;;;1.23;;
40849;SDS011;26571;41.610;25.380;2023-04-24T05:23:01;1.07;;;1.07;;
40849;SDS011;26571;41.610;25.380;2023-04-24T05:25:26;1.40;;;1.30;;
40849;SDS011;26571;41.610;25.380;2023-04-24T05:27:52;0.57;;;0.57;;
40849;SDS011;26571;41.610;25.380;2023-04-24T05:30:18;1.45;;;1.17;;
40849;SDS011;26571;41.610;25.380;2023-04-24T05:32:44;2.47;;;1.00;;
40849;SDS011;26571;41.610;25.380;2023-04-24T05:35:10;1.75;;;1.00;;
40849;SDS011;26571;41.610;25.380;2023-04-24T05:37:36;2.10;;;1.87;;
40849;SDS011;26571;41.610;25.380;2023-04-24T05:40:01;1.47;;;0.97;;
40849;SDS011;26571;41.610;25.380;2023-04-24T05:42:29;1.05;;;1.05;;
40849;SDS011;26571;41.610;25.380;2023-04-24T05:44:54;2.10;;;1.10;;
40849;SDS011;26571;41.610;25.380;2023-04-24T05:47:20;2.83;;;0.97;;
40849;SDS011;26571;41.610;25.380;2023-04-24T05:49:47;1.33;;;1.23;;
40849;SDS011;26571;41.610;25.380;2023-04-24T05:52:12;1.37;;;1.07;;
40849;SDS011;26571;41.610;25.380;2023-04-24T05:54:38;4.33;;;1.67;;
40849;SDS011;26571;41.610;25.380;2023-04-24T05:57:03;1.40;;;1.30;;
40849;SDS011;26571;41.610;25.380;2023-04-24T05:59:32;2.13;;;2.03;;
40849;SDS011;26571;41.610;25.380;2023-04-24T06:02:02;3.15;;;1.65;;
40849;SDS011;26571;41.610;25.380;2023-04-24T06:04:28;1.85;;;1.80;;
40849;SDS011;26571;41.610;25.380;2023-04-24T06:06:53;2.42;;;1.60;;
40849;SDS011;26571;41.610;25.380;2023-04-24T06:09:21;2.55;;;2.00;;
40849;SDS011;26571;41.610;25.380;2023-04-24T06:11:47;2.88;;;2.55;;
40849;SDS011;26571;41.610;25.380;2023-04-24T06:14:13;4.47;;;3.00;;
40849;SDS011;26571;41.610;25.380;2023-04-24T06:16:40;3.08;;;2.88;;
40849;SDS011;26571;41.610;25.380;2023-04-24T06:19:06;3.58;;;3.28;;
40849;SDS011;26571;41.610;25.380;2023-04-24T06:21:32;2.80;;;2.60;;
40849;SDS011;26571;41.610;25.380;2023-04-24T06:23:57;2.30;;;2.20;;
40849;SDS011;26571;41.610;25.380;2023-04-24T06:26:23;2.58;;;2.15;;
40849;SDS011;26571;41.610;25.380;2023-04-24T06:28:50;5.57;;;3.83;;
40849;SDS011;26571;41.610;25.380;2023-04-24T06:31:16;2.47;;;2.28;;
40849;SDS011;26571;41.610;25.380;2023-04-24T06:33:42;5.15;;;2.42;;
40849;SDS011;26571;41.610;25.380;2023-04-24T06:36:07;2.75;;;2.53;;
40849;SDS011;26571;41.610;25.380;2023-04-24T06:38:33;2.90;;;2.70;;
40849;SDS011;26571;41.610;25.380;2023-04-24T06:40:59;5.05;;;2.63;;
40849;SDS011;26571;41.610;25.380;2023-04-24T06:43:25;4.07;;;3.72;;
40849;SDS011;26571;41.610;25.380;2023-04-24T06:45:50;1.95;;;1.85;;
40849;SDS011;26571;41.610;25.380;2023-04-24T06:48:16;4.60;;;2.53;;
40849;SDS011;26571;41.610;25.380;2023-04-24T06:50:41;4.03;;;2.00;;
40849;SDS011;26571;41.610;25.380;2023-04-24T06:53:07;4.07;;;2.38;;
40849;SDS011;26571;41.610;25.380;2023-04-24T06:55:33;3.45;;;2.65;;
40849;SDS011;26571;41.610;25.380;2023-04-24T06:57:58;2.33;;;2.22;;
40849;SDS011;26571;41.610;25.380;2023-04-24T07:00:24;5.88;;;3.83;;
40849;SDS011;26571;41.610;25.380;2023-04-24T07:02:49;5.25;;;2.90;;
40849;SDS011;26571;41.610;25.380;2023-04-24T07:05:15;4.88;;;2.78;;
40849;SDS011;26571;41.610;25.380;2023-04-24T07:07:40;3.45;;;2.70;;
40849;SDS011;26571;41.610;25.380;2023-04-24T07:10:06;3.83;;;2.17;;
40849;SDS011;26571;41.610;25.380;2023-04-24T07:12:33;1.92;;;1.50;;
40849;SDS011;26571;41.610;25.380;2023-04-24T07:14:59;6.68;;;1.45;;
40849;SDS011;26571;41.610;25.380;2023-04-24T07:17:25;2.67;;;1.67;;
40849;SDS011;26571;41.610;25.380;2023-04-24T07:19:50;2.80;;;1.50;;
40849;SDS011;26571;41.610;25.380;2023-04-24T07:22:17;6.47;;;1.65;;
40849;SDS011;26571;41.610;25.380;2023-04-24T07:24:43;1.98;;;1.52;;
40849;SDS011;26571;41.610;25.380;2023-04-24T07:29:34;4.50;;;1.33;;
40849;SDS011;26571;41.610;25.380;2023-04-24T07:32:00;1.88;;;1.50;;
40849;SDS011;26571;41.610;25.380;2023-04-24T07:34:26;2.72;;;1.20;;
40849;SDS011;26571;41.610;25.380;2023-04-24T07:36:51;4.47;;;1.42;;
40849;SDS011;26571;41.610;25.380;2023-04-24T07:39:17;1.20;;;0.93;;
40849;SDS011;26571;41.610;25.380;2023-04-24T07:41:43;2.30;;;1.13;;
40849;SDS011;26571;41.610;25.380;2023-04-24T07:44:08;1.33;;;1.23;;
40849;SDS011;26571;41.610;25.380;2023-04-24T07:46:34;2.38;;;1.20;;
40849;SDS011;26571;41.610;25.380;2023-04-24T07:48:59;2.55;;;1.13;;
40849;SDS011;26571;41.610;25.380;2023-04-24T07:51:26;3.13;;;2.60;;
40849;SDS011;26571;41.610;25.380;2023-04-24T07:53:52;1.95;;;1.85;;
40849;SDS011;26571;41.610;25.380;2023-04-24T07:56:19;2.15;;;1.83;;
40849;SDS011;26571;41.610;25.380;2023-04-24T07:58:45;2.88;;;1.30;;
40849;SDS011;26571;41.610;25.380;2023-04-24T08:01:11;2.55;;;2.03;;
40849;SDS011;26571;41.610;25.380;2023-04-24T08:03:36;2.95;;;2.03;;
40849;SDS011;26571;41.610;25.380;2023-04-24T08:06:02;4.28;;;3.10;;
40849;SDS011;26571;41.610;25.380;2023-04-24T08:08:27;2.75;;;1.73;;
40849;SDS011;26571;41.610;25.380;2023-04-24T08:10:53;2.10;;;1.90;;
40849;SDS011;26571;41.610;25.380;2023-04-24T08:13:19;2.13;;;1.77;;
40849;SDS011;26571;41.610;25.380;2023-04-24T08:15:45;4.57;;;2.65;;
40849;SDS011;26571;41.610;25.380;2023-04-24T08:18:11;5.00;;;1.83;;
40849;SDS011;26571;41.610;25.380;2023-04-24T08:20:37;4.97;;;2.17;;
40849;SDS011;26571;41.610;25.380;2023-04-24T08:23:02;2.78;;;1.38;;
40849;SDS011;26571;41.610;25.380;2023-04-24T08:25:28;6.20;;;1.45;;
40849;SDS011;26571;41.610;25.380;2023-04-24T08:27:53;2.65;;;0.90;;
40849;SDS011;26571;41.610;25.380;2023-04-24T08:30:19;2.92;;;0.93;;
40849;SDS011;26571;41.610;25.380;2023-04-24T08:32:45;2.05;;;1.13;;
40849;SDS011;26571;41.610;25.380;2023-04-24T08:35:11;1.98;;;1.30;;
40849;SDS011;26571;41.610;25.380;2023-04-24T08:37:36;1.52;;;1.38;;
40849;SDS011;26571;41.610;25.380;2023-04-24T08:40:07;1.38;;;0.90;;
40849;SDS011;26571;41.610;25.380;2023-04-24T08:42:39;3.88;;;1.58;;
40849;SDS011;26571;41.610;25.380;2023-04-24T08:45:06;1.85;;;1.30;;
40849;SDS011;26571;41.610;25.380;2023-04-24T08:47:32;3.22;;;1.42;;
40849;SDS011;26571;41.610;25.380;2023-04-24T08:50:00;1.00;;;1.00;;
40849;SDS011;26571;41.610;25.380;2023-04-24T08:52:28;1.10;;;1.08;;
40849;SDS011;26571;41.610;25.380;2023-04-24T08:54:54;3.30;;;0.93;;
40849;SDS011;26571;41.610;25.380;2023-04-24T08:57:20;1.70;;;0.80;;
40849;SDS011;26571;41.610;25.380;2023-04-24T08:59:46;1.83;;;0.83;;
40849;SDS011;26571;41.610;25.380;2023-04-24T09:02:12;4.30;;;0.98;;
40849;SDS011;26571;41.610;25.380;2023-04-24T09:04:39;3.25;;;1.00;;
40849;SDS011;26571;41.610;25.380;2023-04-24T09:07:06;3.90;;;1.70;;
40849;SDS011;26571;41.610;25.380;2023-04-24T09:09:32;0.88;;;0.82;;
40849;SDS011;26571;41.610;25.380;2023-04-24T09:11:59;4.72;;;0.90;;
40849;SDS011;26571;41.610;25.380;2023-04-24T09:14:26;4.63;;;1.20;;
40849;SDS011;26571;41.610;25.380;2023-04-24T09:16:52;4.20;;;1.13;;
40849;SDS011;26571;41.610;25.380;2023-04-24T09:19:18;0.80;;;0.80;;
40849;SDS011;26571;41.610;25.380;2023-04-24T09:21:45;6.18;;;1.27;;
40849;SDS011;26571;41.610;25.380;2023-04-24T09:24:20;2.70;;;1.42;;
40849;SDS011;26571;41.610;25.380;2023-04-24T09:26:55;5.78;;;1.25;;
40849;SDS011;26571;41.610;25.380;2023-04-24T09:29:23;2.10;;;1.90;;
40849;SDS011;26571;41.610;25.380;2023-04-24T09:31:49;4.03;;;1.38;;
40849;SDS011;26571;41.610;25.380;2023-04-24T09:34:18;3.60;;;1.23;;
40849;SDS011;26571;41.610;25.380;2023-04-24T09:36:47;1.40;;;1.30;;
40849;SDS011;26571;41.610;25.380;2023-04-24T09:39:14;1.90;;;0.85;;
40849;SDS011;26571;41.610;25.380;2023-04-24T09:41:44;2.08;;;1.85;;
40849;SDS011;26571;41.610;25.380;2023-04-24T09:44:11;1.50;;;1.40;;
40849;SDS011;26571;41.610;25.380;2023-04-24T09:46:49;2.53;;;1.27;;
40849;SDS011;26571;41.610;25.380;2023-04-24T09:49:16;1.40;;;1.27;;
40849;SDS011;26571;41.610;25.380;2023-04-24T09:51:47;1.92;;;1.17;;
40849;SDS011;26571;41.610;25.380;2023-04-24T09:54:14;4.55;;;1.27;;
40849;SDS011;26571;41.610;25.380;2023-04-24T09:56:44;1.67;;;0.90;;
40849;SDS011;26571;41.610;25.380;2023-04-24T09:59:11;1.92;;;0.93;;
40849;SDS011;26571;41.610;25.380;2023-04-24T10:01:38;0.95;;;0.95;;
40849;SDS011;26571;41.610;25.380;2023-04-24T10:04:14;3.35;;;1.42;;
40849;SDS011;26571;41.610;25.380;2023-04-24T10:06:41;2.42;;;0.88;;
40849;SDS011;26571;41.610;25.380;2023-04-24T10:09:07;0.95;;;0.90;;
40849;SDS011;26571;41.610;25.380;2023-04-24T10:11:35;2.97;;;1.00;;
40849;SDS011;26571;41.610;25.380;2023-04-24T10:14:01;1.65;;;0.63;;
40849;SDS011;26571;41.610;25.380;2023-04-24T10:16:28;4.45;;;0.82;;
40849;SDS011;26571;41.610;25.380;2023-04-24T10:18:56;2.92;;;1.00;;
40849;SDS011;26571;41.610;25.380;2023-04-24T10:21:24;3.08;;;1.45;;
40849;SDS011;26571;41.610;25.380;2023-04-24T10:23:51;2.05;;;0.90;;
40849;SDS011;26571;41.610;25.380;2023-04-24T10:26:17;0.82;;;0.82;;
40849;SDS011;26571;41.610;25.380;2023-04-24T10:28:45;0.80;;;0.80;;
40849;SDS011;26571;41.610;25.380;2023-04-24T10:31:12;3.15;;;0.73;;
40849;SDS011;26571;41.610;25.380;2023-04-24T10:33:38;8.27;;;1.05;;
40849;SDS011;26571;41.610;25.380;2023-04-24T10:36:07;0.68;;;0.68;;
40849;SDS011;26571;41.610;25.380;2023-04-24T10:38:38;3.33;;;1.17;;
40849;SDS011;26571;41.610;25.380;2023-04-24T10:41:12;2.55;;;0.90;;
40849;SDS011;26571;41.610;25.380;2023-04-24T10:43:44;3.60;;;1.00;;
40849;SDS011;26571;41.610;25.380;2023-04-24T10:46:10;3.92;;;1.30;;
40849;SDS011;26571;41.610;25.380;2023-04-24T10:48:44;2.05;;;1.17;;
40849;SDS011;26571;41.610;25.380;2023-04-24T10:51:18;1.48;;;1.02;;
40849;SDS011;26571;41.610;25.380;2023-04-24T10:53:46;1.90;;;1.10;;
40849;SDS011;26571;41.610;25.380;2023-04-24T10:56:15;2.75;;;1.25;;
40849;SDS011;26571;41.610;25.380;2023-04-24T10:58:42;3.15;;;1.58;;
40849;SDS011;26571;41.610;25.380;2023-04-24T11:01:28;3.58;;;3.13;;
40849;SDS011;26571;41.610;25.380;2023-04-24T11:03:59;6.43;;;2.75;;
40849;SDS011;26571;41.610;25.380;2023-04-24T11:09:04;1.33;;;1.23;;
40849;SDS011;26571;41.610;25.380;2023-04-24T11:11:31;2.70;;;1.40;;
40849;SDS011;26571;41.610;25.380;2023-04-24T11:26:58;1.63;;;1.52;;
40849;SDS011;26571;41.610;25.380;2023-04-24T11:34:57;8.90;;;2.72;;
40849;SDS011;26571;41.610;25.380;2023-04-24T11:37:43;1.95;;;1.00;;
40849;SDS011;26571;41.610;25.380;2023-04-24T11:40:19;2.75;;;1.40;;
40849;SDS011;26571;41.610;25.380;2023-04-24T11:42:46;3.22;;;1.08;;
40849;SDS011;26571;41.610;25.380;2023-04-24T11:47:38;1.27;;;1.15;;
40849;SDS011;26571;41.610;25.380;2023-04-24T11:50:05;3.87;;;1.53;;
40849;SDS011;26571;41.610;25.380;2023-04-24T11:52:33;3.22;;;2.03;;
40849;SDS011;26571;41.610;25.380;2023-04-24T11:55:02;2.50;;;1.55;;
40849;SDS011;26571;41.610;25.380;2023-04-24T11:57:28;4.13;;;1.27;;
40849;SDS011;26571;41.610;25.380;2023-04-24T11:59:59;2.85;;;1.27;;
40849;SDS011;26571;41.610;25.380;2023-04-24T12:02:25;1.95;;;1.38;;
40849;SDS011;26571;41.610;25.380;2023-04-24T12:07:18;1.40;;;1.30;;
40849;SDS011;26571;41.610;25.380;2023-04-24T12:09:47;3.35;;;1.40;;
40849;SDS011;26571;41.610;25.380;2023-04-24T12:12:15;2.72;;;1.90;;
40849;SDS011;26571;41.610;25.380;2023-04-24T12:17:25;4.25;;;3.95;;
40849;SDS011;26571;41.610;25.380;2023-04-24T12:19:52;4.85;;;1.92;;
40849;SDS011;26571;41.610;25.380;2023-04-24T12:22:21;2.70;;;1.90;;
40849;SDS011;26571;41.610;25.380;2023-04-24T12:24:57;4.13;;;1.63;;
40849;SDS011;26571;41.610;25.380;2023-04-24T12:27:23;3.30;;;1.30;;
40849;SDS011;26571;41.610;25.380;2023-04-24T12:29:57;2.25;;;1.42;;
40849;SDS011;26571;41.610;25.380;2023-04-24T12:32:24;6.65;;;2.50;;
40849;SDS011;26571;41.610;25.380;2023-04-24T12:34:50;4.22;;;1.23;;
40849;SDS011;26571;41.610;25.380;2023-04-24T12:37:19;8.73;;;1.73;;
40849;SDS011;26571;41.610;25.380;2023-04-24T12:40:06;4.22;;;2.58;;
40849;SDS011;26571;41.610;25.380;2023-04-24T12:42:42;4.00;;;2.55;;
40849;SDS011;26571;41.610;25.380;2023-04-24T12:45:11;3.63;;;2.33;;
40849;SDS011;26571;41.610;25.380;2023-04-24T12:47:37;4.03;;;3.70;;
40849;SDS011;26571;41.610;25.380;2023-04-24T12:50:04;6.82;;;5.32;;
40849;SDS011;26571;41.610;25.380;2023-04-24T12:52:31;0.50;;;0.50;;
40849;SDS011;26571;41.610;25.380;2023-04-24T12:54:59;3.78;;;1.42;;
40849;SDS011;26571;41.610;25.380;2023-04-24T12:57:26;3.78;;;3.08;;
40849;SDS011;26571;41.610;25.380;2023-04-24T12:59:56;7.68;;;2.88;;
40849;SDS011;26571;41.610;25.380;2023-04-24T13:02:26;4.45;;;2.63;;
40849;SDS011;26571;41.610;25.380;2023-04-24T13:04:57;2.33;;;2.13;;
40849;SDS011;26571;41.610;25.380;2023-04-24T13:07:23;9.20;;;6.63;;
40849;SDS011;26571;41.610;25.380;2023-04-24T13:09:49;7.30;;;5.78;;
40849;SDS011;26571;41.610;25.380;2023-04-24T13:12:16;2.38;;;2.17;;
40849;SDS011;26571;41.610;25.380;2023-04-24T13:14:41;1.85;;;1.75;;
40849;SDS011;26571;41.610;25.380;2023-04-24T13:17:07;2.25;;;1.20;;
40849;SDS011;26571;41.610;25.380;2023-04-24T13:19:39;4.53;;;1.77;;
40849;SDS011;26571;41.610;25.380;2023-04-24T13:22:08;1.60;;;1.40;;
40849;SDS011;26571;41.610;25.380;2023-04-24T13:24:37;4.55;;;3.42;;
40849;SDS011;26571;41.610;25.380;2023-04-24T13:27:04;5.82;;;1.00;;
40849;SDS011;26571;41.610;25.380;2023-04-24T13:29:30;3.95;;;1.98;;
40849;SDS011;26571;41.610;25.380;2023-04-24T13:31:55;2.65;;;2.55;;
40849;SDS011;26571;41.610;25.380;2023-04-24T13:34:21;6.63;;;3.25;;
40849;SDS011;26571;41.610;25.380;2023-04-24T13:36:51;4.65;;;2.28;;
40849;SDS011;26571;41.610;25.380;2023-04-24T13:39:21;3.45;;;2.20;;
40849;SDS011;26571;41.610;25.380;2023-04-24T13:41:47;5.40;;;4.07;;
40849;SDS011;26571;41.610;25.380;2023-04-24T13:44:13;2.75;;;1.90;;
40849;SDS011;26571;41.610;25.380;2023-04-24T13:46:40;6.20;;;3.53;;
40849;SDS011;26571;41.610;25.380;2023-04-24T13:49:05;2.78;;;2.38;;
40849;SDS011;26571;41.610;25.380;2023-04-24T13:51:32;1.75;;;1.65;;
40849;SDS011;26571;41.610;25.380;2023-04-24T13:53:57;1.35;;;1.27;;
40849;SDS011;26571;41.610;25.380;2023-04-24T13:56:23;2.45;;;1.23;;
40849;SDS011;26571;41.610;25.380;2023-04-24T13:58:48;2.35;;;1.40;;
40849;SDS011;26571;41.610;25.380;2023-04-24T14:01:14;2.53;;;1.33;;
40849;SDS011;26571;41.610;25.380;2023-04-24T14:03:41;3.35;;;2.70;;
40849;SDS011;26571;41.610;25.380;2023-04-24T14:06:08;3.20;;;2.40;;
40849;SDS011;26571;41.610;25.380;2023-04-24T14:08:33;5.35;;;2.35;;
40849;SDS011;26571;41.610;25.380;2023-04-24T14:10:59;3.83;;;2.33;;
40849;SDS011;26571;41.610;25.380;2023-04-24T14:13:24;3.22;;;2.00;;
40849;SDS011;26571;41.610;25.380;2023-04-24T14:15:50;2.20;;;2.03;;
40849;SDS011;26571;41.610;25.380;2023-04-24T14:18:17;1.58;;;1.48;;
40849;SDS011;26571;41.610;25.380;2023-04-24T14:20:43;4.53;;;1.77;;
40849;SDS011;26571;41.610;25.380;2023-04-24T14:23:08;7.32;;;2.92;;
40849;SDS011;26571;41.610;25.380;2023-04-24T14:25:34;5.85;;;2.38;;
40849;SDS011;26571;41.610;25.380;2023-04-24T14:27:59;2.67;;;1.60;;
40849;SDS011;26571;41.610;25.380;2023-04-24T14:30:25;2.63;;;1.75;;
40849;SDS011;26571;41.610;25.380;2023-04-24T14:32:50;2.10;;;1.88;;
40849;SDS011;26571;41.610;25.380;2023-04-24T14:35:15;2.67;;;1.67;;
40849;SDS011;26571;41.610;25.380;2023-04-24T14:37:41;4.43;;;1.60;;
40849;SDS011;26571;41.610;25.380;2023-04-24T14:40:07;2.87;;;2.67;;
40849;SDS011;26571;41.610;25.380;2023-04-24T14:42:34;5.60;;;2.63;;
40849;SDS011;26571;41.610;25.380;2023-04-24T14:45:00;6.53;;;3.00;;
40849;SDS011;26571;41.610;25.380;2023-04-24T14:47:26;5.50;;;3.80;;
40849;SDS011;26571;41.610;25.380;2023-04-24T14:49:51;3.38;;;2.63;;
40849;SDS011;26571;41.610;25.380;2023-04-24T14:52:17;5.97;;;3.47;;
40849;SDS011;26571;41.610;25.380;2023-04-24T14:54:42;5.68;;;3.30;;
40849;SDS011;26571;41.610;25.380;2023-04-24T14:57:08;4.75;;;4.35;;
40849;SDS011;26571;41.610;25.380;2023-04-24T14:59:34;3.83;;;3.50;;
40849;SDS011;26571;41.610;25.380;2023-04-24T15:02:00;3.90;;;3.50;;
40849;SDS011;26571;41.610;25.380;2023-04-24T15:04:26;4.70;;;2.95;;